createdAt,value
2022-10-24T00:00:15.985Z,14.29
2022-10-24T00:02:42.759Z,14.30
2022-10-24T00:05:12.884Z,14.31
2022-10-24T00:07:50.576Z,14.34
2022-10-24T00:10:17.631Z,14.36
2022-10-24T00:12:46.101Z,14.38
2022-10-24T00:15:13.144Z,14.42
2022-10-24T00:17:39.566Z,14.43
2022-10-24T00:20:45.165Z,14.41
2022-10-24T00:23:18.833Z,14.43
2022-10-24T00:25:45.188Z,14.45
2022-10-24T00:28:17.843Z,14.44
2022-10-24T00:30:44.216Z,14.41
2022-10-24T00:33:11.611Z,14.40
2022-10-24T00:35:37.961Z,14.39
2022-10-24T00:38:04.368Z,14.36
2022-10-24T00:40:51.183Z,14.34
2022-10-24T00:43:24.031Z,14.34
2022-10-24T00:45:59.653Z,14.32
2022-10-24T00:48:39.583Z,14.29
2022-10-24T00:51:21.523Z,14.30
2022-10-24T00:53:51.962Z,14.26
2022-10-24T00:56:21.863Z,14.25
2022-10-24T00:58:48.747Z,14.25
2022-10-24T01:02:05.151Z,14.26
2022-10-24T01:04:31.576Z,14.28
2022-10-24T01:07:35.661Z,14.29
2022-10-24T01:10:25.655Z,14.32
2022-10-24T01:13:31.293Z,14.34
2022-10-24T01:16:08.882Z,14.32
2022-10-24T01:21:41.841Z,14.32
2022-10-24T01:24:39.259Z,14.29
2022-10-24T01:27:30.908Z,14.26
2022-10-24T01:30:09.791Z,14.27
2022-10-24T01:32:44.839Z,14.27
2022-10-24T01:35:22.569Z,14.28
2022-10-24T01:38:19.163Z,14.30
2022-10-24T01:40:57.866Z,14.29
2022-10-24T01:43:33.467Z,14.29
2022-10-24T01:46:13.780Z,14.28
2022-10-24T01:48:46.880Z,14.27
2022-10-24T01:51:17.324Z,14.26
2022-10-24T01:53:58.436Z,14.23
2022-10-24T01:56:28.459Z,14.24
2022-10-24T01:59:05.962Z,14.20
2022-10-24T02:01:36.805Z,14.21
2022-10-24T02:04:14.848Z,14.17
2022-10-24T02:06:43.146Z,14.15
2022-10-24T02:09:15.361Z,14.20
2022-10-24T02:11:43.788Z,14.20
2022-10-24T02:14:23.956Z,14.23
2022-10-24T02:17:02.184Z,14.28
2022-10-24T02:19:30.321Z,14.28
2022-10-24T02:22:10.755Z,14.28
2022-10-24T02:25:12.959Z,14.26
2022-10-24T02:27:47.322Z,14.27
2022-10-24T02:30:22.946Z,14.31
2022-10-24T02:32:58.787Z,14.31
2022-10-24T02:35:28.633Z,14.30
2022-10-24T02:38:24.804Z,14.27
2022-10-24T02:40:52.948Z,14.26
2022-10-24T02:43:22.098Z,14.24
2022-10-24T02:45:53.183Z,14.25
2022-10-24T02:48:23.327Z,14.25
2022-10-24T02:53:34.785Z,14.24
2022-10-24T02:56:10.087Z,14.24
2022-10-24T02:58:36.468Z,14.22
2022-10-24T03:01:21.408Z,14.15
2022-10-24T03:04:00.011Z,14.17
2022-10-24T03:07:20.395Z,14.16
2022-10-24T03:09:46.795Z,14.15
2022-10-24T03:12:18.448Z,14.09
2022-10-24T03:14:45.024Z,14.04
2022-10-24T03:17:17.795Z,14.00
2022-10-24T03:19:45.165Z,14.01
2022-10-24T03:22:41.542Z,13.99
2022-10-24T03:25:24.489Z,13.98
2022-10-24T03:27:50.876Z,13.99
2022-10-24T03:30:17.343Z,13.99
2022-10-24T03:32:50.972Z,13.98
2022-10-24T03:35:17.598Z,13.98
2022-10-24T03:37:44.987Z,13.94
2022-10-24T03:40:12.459Z,13.92
2022-10-24T03:43:14.994Z,13.94
2022-10-24T03:45:41.534Z,13.94
2022-10-24T03:48:07.907Z,13.90
2022-10-24T03:50:34.666Z,13.91
2022-10-24T03:53:06.200Z,13.92
2022-10-24T03:55:32.780Z,13.95
2022-10-24T03:57:59.114Z,13.99
2022-10-24T04:00:29.038Z,14.02
2022-10-24T04:03:07.668Z,14.03
2022-10-24T04:05:58.038Z,14.03
2022-10-24T04:08:27.511Z,14.04
2022-10-24T04:11:01.816Z,14.06
2022-10-24T04:13:28.181Z,14.10
2022-10-24T04:15:54.540Z,14.11
2022-10-24T04:18:20.909Z,14.11
2022-10-24T04:20:49.308Z,14.10
2022-10-24T04:23:15.793Z,14.09
2022-10-24T04:25:43.044Z,14.10
2022-10-24T04:28:09.422Z,14.08
2022-10-24T04:30:44.762Z,14.08
2022-10-24T04:33:12.217Z,14.13
2022-10-24T04:35:38.732Z,14.13
2022-10-24T04:38:05.087Z,14.14
2022-10-24T04:40:54.059Z,14.15
2022-10-24T04:43:21.726Z,14.16
2022-10-24T04:45:48.189Z,14.20
2022-10-24T04:48:15.526Z,14.23
2022-10-24T04:50:43.262Z,14.25
2022-10-24T04:53:28.860Z,14.24
2022-10-24T04:55:59.407Z,14.24
2022-10-24T04:58:25.744Z,14.24
2022-10-24T05:00:52.172Z,14.24
2022-10-24T05:03:19.345Z,14.24
2022-10-24T05:06:04.355Z,14.24
2022-10-24T05:08:40.742Z,14.23
2022-10-24T05:11:09.762Z,14.24
2022-10-24T05:13:36.873Z,14.24
2022-10-24T05:16:03.963Z,14.25
2022-10-24T05:18:50.729Z,14.30
2022-10-24T05:21:17.167Z,14.30
2022-10-24T05:24:18.729Z,14.34
2022-10-24T05:26:50.204Z,14.32
2022-10-24T05:29:20.765Z,14.30
2022-10-24T05:31:47.216Z,14.32
2022-10-24T05:34:13.752Z,14.32
2022-10-24T05:36:40.132Z,14.31
2022-10-24T05:39:06.683Z,14.35
2022-10-24T05:41:44.797Z,14.37
2022-10-24T05:44:14.560Z,14.37
2022-10-24T05:46:51.437Z,14.38
2022-10-24T05:49:17.793Z,14.37
2022-10-24T05:52:01.600Z,14.34
2022-10-24T05:54:48.526Z,14.36
2022-10-24T05:57:23.088Z,14.33
2022-10-24T05:59:49.427Z,14.34
2022-10-24T06:02:20.535Z,14.35
2022-10-24T06:04:48.404Z,14.36
2022-10-24T06:07:33.887Z,14.32
2022-10-24T06:10:06.654Z,14.34
2022-10-24T06:12:41.504Z,14.32
2022-10-24T06:15:21.361Z,14.32
2022-10-24T06:17:47.752Z,14.34
2022-10-24T06:20:14.255Z,14.36
2022-10-24T06:22:40.892Z,14.34
2022-10-24T06:25:07.532Z,14.34
2022-10-24T06:27:33.983Z,14.32
2022-10-24T06:30:00.387Z,14.32
2022-10-24T06:32:29.725Z,14.36
2022-10-24T06:34:56.061Z,14.39
2022-10-24T06:37:23.499Z,14.39
2022-10-24T06:39:50.944Z,14.41
2022-10-24T06:42:17.289Z,14.38
2022-10-24T06:44:43.656Z,14.40
2022-10-24T06:47:14.110Z,14.42
2022-10-24T06:49:49.760Z,14.45
2022-10-24T06:53:11.403Z,14.46
2022-10-24T06:56:08.033Z,14.47
2022-10-24T06:58:37.084Z,14.50
2022-10-24T07:01:23.629Z,14.49
2022-10-24T07:04:07.908Z,14.49
2022-10-24T07:06:57.906Z,14.49
2022-10-24T07:09:29.374Z,14.47
2022-10-24T07:11:59.860Z,14.46
2022-10-24T07:14:26.222Z,14.49
2022-10-24T07:16:58.312Z,14.50
2022-10-24T07:19:24.693Z,14.53
2022-10-24T07:21:51.058Z,14.51
2022-10-24T07:24:17.490Z,14.59
2022-10-24T07:26:43.860Z,14.62
2022-10-24T07:29:44.347Z,14.65
2022-10-24T07:32:10.905Z,14.68
2022-10-24T07:34:38.761Z,14.72
2022-10-24T07:37:05.625Z,14.77
2022-10-24T07:39:32.057Z,14.82
2022-10-24T07:41:58.621Z,14.84
2022-10-24T07:44:25.669Z,14.82
2022-10-24T07:46:54.428Z,14.86
2022-10-24T07:49:20.775Z,14.83
2022-10-24T07:51:51.240Z,14.85
2022-10-24T07:54:17.655Z,14.86
2022-10-24T07:56:44.076Z,14.88
2022-10-24T07:59:30.022Z,14.88
2022-10-24T08:02:04.662Z,14.92
2022-10-24T08:04:31.113Z,14.92
2022-10-24T08:06:57.800Z,14.92
2022-10-24T08:09:24.649Z,14.93
2022-10-24T08:11:51.019Z,14.91
2022-10-24T08:14:17.391Z,14.93
2022-10-24T08:16:43.772Z,14.90
2022-10-24T08:19:11.974Z,14.92
2022-10-24T08:21:38.408Z,14.91
2022-10-24T08:24:05.051Z,14.90
2022-10-24T08:26:33.528Z,14.92
2022-10-24T08:29:01.653Z,14.93
2022-10-24T08:31:28.006Z,14.94
2022-10-24T08:33:55.712Z,14.94
2022-10-24T08:36:30.104Z,14.94
2022-10-24T08:38:56.964Z,14.95
2022-10-24T08:41:43.761Z,14.95
2022-10-24T08:44:23.769Z,14.97
2022-10-24T08:47:12.402Z,14.99
2022-10-24T08:50:06.652Z,14.99
2022-10-24T08:52:51.845Z,14.99
2022-10-24T08:55:50.500Z,15.00
2022-10-24T08:58:16.283Z,14.99
2022-10-24T09:00:49.403Z,15.02
2022-10-24T09:03:43.846Z,15.05
2022-10-24T09:06:17.771Z,15.06
2022-10-24T09:08:58.278Z,15.09
2022-10-24T09:11:24.595Z,15.10
2022-10-24T09:13:51.259Z,15.10
2022-10-24T09:16:22.384Z,15.08
2022-10-24T09:18:52.816Z,15.05
2022-10-24T09:21:19.863Z,15.05
2022-10-24T09:23:46.817Z,15.04
2022-10-24T09:26:18.383Z,15.05
2022-10-24T09:28:45.356Z,15.06
2022-10-24T09:31:18.090Z,15.08
2022-10-24T09:33:46.088Z,15.07
2022-10-24T09:36:14.876Z,15.02
2022-10-24T09:38:42.215Z,14.98
2022-10-24T09:41:22.997Z,14.96
2022-10-24T09:43:56.209Z,14.92
2022-10-24T09:46:28.679Z,14.88
2022-10-24T09:48:59.511Z,14.85
2022-10-24T09:51:32.757Z,14.83
2022-10-24T09:54:18.920Z,14.83
2022-10-24T09:57:11.378Z,14.82
2022-10-24T09:59:41.680Z,14.80
2022-10-24T10:02:24.390Z,14.79
2022-10-24T10:05:03.311Z,14.75
2022-10-24T10:07:32.960Z,14.71
2022-10-24T10:10:04.245Z,14.74
2022-10-24T10:12:42.486Z,14.78
2022-10-24T10:15:26.986Z,14.81
2022-10-24T10:17:56.429Z,14.84
2022-10-24T10:20:28.096Z,14.85
2022-10-24T10:22:54.428Z,14.88
2022-10-24T10:25:30.579Z,14.89
2022-10-24T10:28:01.031Z,14.86
2022-10-24T10:30:29.476Z,14.85
2022-10-24T10:32:55.806Z,14.90
2022-10-24T10:35:28.360Z,14.93
2022-10-24T10:38:24.868Z,14.96
2022-10-24T10:41:03.346Z,14.98
2022-10-24T10:43:48.103Z,15.04
2022-10-24T10:46:37.027Z,15.11
2022-10-24T10:49:11.493Z,15.14
2022-10-24T10:52:02.555Z,15.15
2022-10-24T10:54:50.269Z,15.16
2022-10-24T10:57:31.040Z,15.15
2022-10-24T11:00:07.715Z,15.14
2022-10-24T11:02:58.071Z,15.12
2022-10-24T11:05:48.898Z,15.12
2022-10-24T11:08:39.686Z,15.12
2022-10-24T11:11:43.298Z,15.10
2022-10-24T11:14:28.141Z,15.10
2022-10-24T11:16:58.923Z,15.07
2022-10-24T11:20:03.685Z,15.11
2022-10-24T11:22:38.708Z,15.12
2022-10-24T11:25:27.832Z,15.16
2022-10-24T11:28:19.873Z,15.17
2022-10-24T11:30:52.201Z,15.26
2022-10-24T11:33:26.021Z,15.33
2022-10-24T11:36:09.679Z,15.35
2022-10-24T11:38:44.007Z,15.35
2022-10-24T11:41:25.084Z,15.30
2022-10-24T11:43:55.643Z,15.23
2022-10-24T11:46:26.298Z,15.17
2022-10-24T11:49:00.307Z,15.12
2022-10-24T11:51:34.142Z,15.02
2022-10-24T11:54:05.170Z,15.00
2022-10-24T11:56:40.245Z,15.02
2022-10-24T11:59:12.570Z,15.03
2022-10-24T12:01:51.168Z,15.04
2022-10-24T12:04:42.056Z,15.04
2022-10-24T12:07:37.716Z,15.10
2022-10-24T12:10:29.084Z,15.14
2022-10-24T12:13:14.279Z,15.15
2022-10-24T12:16:05.283Z,15.15
2022-10-24T12:18:40.373Z,15.15
2022-10-24T12:21:21.032Z,15.14
2022-10-24T12:23:59.345Z,15.11
2022-10-24T12:26:31.254Z,15.11
2022-10-24T12:29:00.938Z,15.10
2022-10-24T12:31:30.322Z,15.07
2022-10-24T12:34:15.443Z,15.09
2022-10-24T12:37:00.607Z,15.15
2022-10-24T12:39:33.490Z,15.18
2022-10-24T12:42:00.152Z,15.21
2022-10-24T12:44:32.224Z,15.26
2022-10-24T12:46:59.055Z,15.33
2022-10-24T12:49:28.482Z,15.39
2022-10-24T12:51:56.416Z,15.40
2022-10-24T12:54:42.683Z,15.39
2022-10-24T12:57:12.051Z,15.35
2022-10-24T12:59:53.946Z,15.35
2022-10-24T13:02:20.327Z,15.32
2022-10-24T13:05:14.352Z,15.29
2022-10-24T13:08:14.228Z,15.26
2022-10-24T13:11:13.098Z,15.18
2022-10-24T13:13:51.240Z,15.12
2022-10-24T13:16:40.801Z,15.04
2022-10-24T13:19:07.381Z,14.97
2022-10-24T13:21:46.878Z,14.92
2022-10-24T13:24:16.650Z,14.85
2022-10-24T13:26:46.876Z,14.78
2022-10-24T13:29:16.773Z,14.71
2022-10-24T13:31:46.135Z,14.69
2022-10-24T13:34:30.342Z,14.66
2022-10-24T13:37:12.600Z,14.63
2022-10-24T13:39:54.101Z,14.66
2022-10-24T13:42:40.043Z,14.69
2022-10-24T13:45:30.648Z,14.68
2022-10-24T13:48:05.745Z,14.71
2022-10-24T13:50:34.525Z,14.71
2022-10-24T13:53:11.969Z,14.69
2022-10-24T13:55:44.227Z,14.65
2022-10-24T13:58:22.756Z,14.66
2022-10-24T14:00:57.784Z,14.63
2022-10-24T14:03:28.195Z,14.58
2022-10-24T14:06:04.089Z,14.56
2022-10-24T14:08:42.323Z,14.50
2022-10-24T14:11:13.583Z,14.50
2022-10-24T14:14:04.063Z,14.53
2022-10-24T14:16:34.801Z,14.56
2022-10-24T14:19:15.298Z,14.56
2022-10-24T14:21:46.111Z,14.58
2022-10-24T14:24:15.941Z,14.59
2022-10-24T14:26:45.434Z,14.62
2022-10-24T14:29:23.455Z,14.62
2022-10-24T14:32:01.254Z,14.63
2022-10-24T14:34:33.767Z,14.62
2022-10-24T14:37:08.481Z,14.61
2022-10-24T14:39:35.739Z,14.59
2022-10-24T14:42:02.887Z,14.58
2022-10-24T14:44:29.752Z,14.55
2022-10-24T14:47:29.202Z,14.56
2022-10-24T14:49:56.204Z,14.55
2022-10-24T14:52:24.952Z,14.55
2022-10-24T14:55:03.120Z,14.56
2022-10-24T14:57:32.288Z,14.59
2022-10-24T15:00:07.540Z,14.60
2022-10-24T15:02:42.015Z,14.60
2022-10-24T15:05:18.867Z,14.56
2022-10-24T15:08:02.956Z,14.54
2022-10-24T15:10:40.421Z,14.55
2022-10-24T15:13:14.485Z,14.57
2022-10-24T15:15:43.849Z,14.55
2022-10-24T15:18:43.104Z,14.51
2022-10-24T15:21:19.556Z,14.50
2022-10-24T15:23:59.274Z,14.49
2022-10-24T15:26:36.274Z,14.49
2022-10-24T15:29:02.572Z,14.51
2022-10-24T15:31:30.475Z,14.52
2022-10-24T15:33:56.844Z,14.54
2022-10-24T15:36:29.518Z,14.53
2022-10-24T15:39:00.899Z,14.52
2022-10-24T15:41:28.098Z,14.51
2022-10-24T15:43:55.848Z,14.51
2022-10-24T15:46:22.303Z,14.51
2022-10-24T15:48:49.696Z,14.49
2022-10-24T15:51:18.993Z,14.49
2022-10-24T15:53:46.873Z,14.50
2022-10-24T15:56:13.534Z,14.46
2022-10-24T15:58:40.557Z,14.45
2022-10-24T16:01:08.086Z,14.39
2022-10-24T16:03:45.821Z,14.36
2022-10-24T16:06:12.181Z,14.32
2022-10-24T16:08:38.619Z,14.28
2022-10-24T16:11:09.121Z,14.22
2022-10-24T16:13:36.365Z,14.16
2022-10-24T16:16:29.562Z,14.12
2022-10-24T16:18:58.019Z,14.06
2022-10-24T16:21:28.412Z,14.05
2022-10-24T16:23:55.523Z,14.02
2022-10-24T16:26:21.989Z,13.99
2022-10-24T16:28:48.633Z,13.97
2022-10-24T16:31:18.688Z,13.94
2022-10-24T16:33:46.704Z,13.90
2022-10-24T16:36:20.927Z,13.88
2022-10-24T16:38:50.357Z,13.88
2022-10-24T16:41:34.069Z,13.84
2022-10-24T16:44:00.601Z,13.80
2022-10-24T16:46:27.732Z,13.80
2022-10-24T16:48:54.489Z,13.80
2022-10-24T16:51:24.896Z,13.78
2022-10-24T16:53:55.397Z,13.75
2022-10-24T16:56:21.839Z,13.70
2022-10-24T16:58:48.304Z,13.67
2022-10-24T17:01:40.378Z,13.62
2022-10-24T17:04:07.761Z,13.59
2022-10-24T17:10:20.756Z,13.52
2022-10-24T17:12:50.747Z,13.49
2022-10-24T17:15:21.967Z,13.47
2022-10-24T17:17:49.364Z,13.42
2022-10-24T17:20:25.112Z,13.38
2022-10-24T17:22:51.651Z,13.33
2022-10-24T17:25:22.597Z,13.29
2022-10-24T17:27:49.853Z,13.25
2022-10-24T17:30:23.036Z,13.22
2022-10-24T17:32:50.203Z,13.20
2022-10-24T17:35:20.553Z,13.18
2022-10-24T17:37:56.165Z,13.17
2022-10-24T17:40:27.043Z,13.12
2022-10-24T17:42:58.499Z,13.10
2022-10-24T17:45:26.140Z,13.07
2022-10-24T17:47:52.676Z,13.05
2022-10-24T17:50:21.188Z,13.03
2022-10-24T17:52:51.187Z,13.01
2022-10-24T17:55:40.998Z,12.98
2022-10-24T17:58:07.705Z,12.98
2022-10-24T18:00:38.823Z,12.95
2022-10-24T18:03:05.706Z,12.94
2022-10-24T18:05:37.523Z,12.92
2022-10-24T18:08:12.543Z,12.89
2022-10-24T18:10:41.086Z,12.89
2022-10-24T18:13:08.079Z,12.89
2022-10-24T18:15:41.756Z,12.89
2022-10-24T18:18:12.152Z,12.90
2022-10-24T18:20:39.520Z,12.91
2022-10-24T18:23:06.920Z,12.93
2022-10-24T18:25:33.294Z,12.95
2022-10-24T18:28:16.055Z,12.97
2022-10-24T18:30:42.448Z,13.01
2022-10-24T18:33:08.801Z,13.03
2022-10-24T18:35:35.724Z,13.06
2022-10-24T18:38:05.183Z,13.10
2022-10-24T18:40:33.484Z,13.13
2022-10-24T18:43:06.927Z,13.16
2022-10-24T18:45:33.827Z,13.18
2022-10-24T18:48:00.664Z,13.17
2022-10-24T18:50:35.745Z,13.18
2022-10-24T18:53:09.781Z,13.18
2022-10-24T18:55:36.686Z,13.19
2022-10-24T18:58:03.789Z,13.19
2022-10-24T19:00:32.622Z,13.23
2022-10-24T19:03:11.336Z,13.23
2022-10-24T19:05:51.857Z,13.20
2022-10-24T19:08:23.269Z,13.21
2022-10-24T19:10:52.794Z,13.23
2022-10-24T19:13:19.176Z,13.22
2022-10-24T19:15:52.063Z,13.21
2022-10-24T19:18:18.711Z,13.22
2022-10-24T19:20:45.072Z,13.20
2022-10-24T19:23:13.208Z,13.17
2022-10-24T19:25:39.958Z,13.16
2022-10-24T19:28:06.350Z,13.16
2022-10-24T19:30:32.869Z,13.13
2022-10-24T19:32:59.226Z,13.10
2022-10-24T19:35:25.608Z,13.08
2022-10-24T19:37:52.008Z,13.06
2022-10-24T19:40:18.372Z,13.05
2022-10-24T19:42:44.709Z,13.03
2022-10-24T19:45:11.160Z,13.02
2022-10-24T19:47:37.603Z,13.02
2022-10-24T19:50:04.601Z,12.98
2022-10-24T19:52:30.953Z,12.97
2022-10-24T19:54:57.284Z,12.95
2022-10-24T19:57:23.665Z,12.90
2022-10-24T19:59:50.064Z,12.87
2022-10-24T20:02:16.463Z,12.85
2022-10-24T20:04:46.686Z,12.81
2022-10-24T20:07:17.483Z,12.79
2022-10-24T20:09:48.070Z,12.77
2022-10-24T20:12:33.948Z,12.74
2022-10-24T20:15:00.497Z,12.73
2022-10-24T20:17:26.845Z,12.72
2022-10-24T20:19:53.328Z,12.72
2022-10-24T20:22:19.684Z,12.70
2022-10-24T20:24:46.024Z,12.70
2022-10-24T20:27:12.451Z,12.69
2022-10-24T20:29:39.282Z,12.67
2022-10-24T20:32:05.746Z,12.67
2022-10-24T20:34:32.146Z,12.66
2022-10-24T20:36:58.496Z,12.64
2022-10-24T20:39:27.028Z,12.66
2022-10-24T20:41:54.321Z,12.66
2022-10-24T20:44:27.127Z,12.68
2022-10-24T20:46:55.439Z,12.70
2022-10-24T20:49:22.333Z,12.72
2022-10-24T20:51:48.780Z,12.69
2022-10-24T20:54:15.140Z,12.70
2022-10-24T20:56:42.751Z,12.70
2022-10-24T20:59:11.703Z,12.68
2022-10-24T21:01:38.205Z,12.71
2022-10-24T21:04:13.685Z,12.73
2022-10-24T21:06:46.307Z,12.69
2022-10-24T21:09:12.651Z,12.69
2022-10-24T21:11:39.376Z,12.70
2022-10-24T21:14:17.955Z,12.69
2022-10-24T21:16:44.317Z,12.69
2022-10-24T21:19:10.676Z,12.69
2022-10-24T21:21:37.153Z,12.72
2022-10-24T21:24:05.820Z,12.72
2022-10-24T21:26:42.089Z,12.71
2022-10-24T21:29:20.909Z,12.69
2022-10-24T21:31:55.348Z,12.68
2022-10-24T21:34:22.157Z,12.67
2022-10-24T21:36:53.518Z,12.67
2022-10-24T21:39:19.973Z,12.66
2022-10-24T21:41:46.358Z,12.68
2022-10-24T21:44:14.336Z,12.66
2022-10-24T21:46:45.097Z,12.67
2022-10-24T21:49:30.697Z,12.67
2022-10-24T21:51:57.056Z,12.65
2022-10-24T21:54:25.175Z,12.66
2022-10-24T21:56:53.629Z,12.64
2022-10-24T21:59:20.962Z,12.62
2022-10-24T22:01:48.726Z,12.62
2022-10-24T22:04:42.413Z,12.61
2022-10-24T22:07:15.072Z,12.59
2022-10-24T22:09:41.477Z,12.58
2022-10-24T22:12:07.866Z,12.57
2022-10-24T22:14:34.224Z,12.55
2022-10-24T22:17:16.923Z,12.55
2022-10-24T22:19:43.270Z,12.55
2022-10-24T22:22:11.746Z,12.52
2022-10-24T22:24:40.229Z,12.51
2022-10-24T22:27:06.586Z,12.51
2022-10-24T22:29:44.988Z,12.51
2022-10-24T22:32:15.592Z,12.50
2022-10-24T22:34:43.353Z,12.51
2022-10-24T22:37:31.812Z,12.50
2022-10-24T22:39:58.450Z,12.50
2022-10-24T22:42:24.913Z,12.50
2022-10-24T22:44:51.535Z,12.50
2022-10-24T22:47:45.516Z,12.49
2022-10-24T22:50:33.464Z,12.50
2022-10-24T22:53:00.224Z,12.51
2022-10-24T22:55:34.039Z,12.51
2022-10-24T22:58:11.840Z,12.52
2022-10-24T23:00:38.422Z,12.54
2022-10-24T23:03:34.799Z,12.55
2022-10-24T23:06:13.593Z,12.55
2022-10-24T23:08:41.356Z,12.49
2022-10-24T23:11:11.528Z,12.48
2022-10-24T23:13:40.510Z,12.49
2022-10-24T23:16:27.247Z,12.50
2022-10-24T23:19:16.617Z,12.52
2022-10-24T23:22:21.691Z,12.53
2022-10-24T23:24:49.531Z,12.55
2022-10-24T23:27:46.261Z,12.57
2022-10-24T23:30:19.087Z,12.60
2022-10-24T23:32:48.832Z,12.61
2022-10-24T23:35:22.507Z,12.63
2022-10-24T23:37:51.291Z,12.64
2022-10-24T23:40:17.571Z,12.65
2022-10-24T23:42:45.502Z,12.65
2022-10-24T23:45:17.769Z,12.69
2022-10-24T23:48:21.285Z,12.73
2022-10-24T23:51:01.571Z,12.73
2022-10-24T23:53:50.533Z,12.74
2022-10-24T23:56:26.820Z,12.77
2022-10-24T23:58:53.540Z,12.78
